Lubbock, TX (79401)

2:25 PM CDT on August 30, 2015 (GMT -0500)
Carlisle Park | | Change Station
CLOSE
Current Station
Personal Weather Station
Location: Lubbock, TX
Elevation: 3215 ft
Nearby Weather Stations

Elev 3215 ft 33.57 °N, 101.87 °W | Updated 7 seconds ago

Partly Cloudy
Partly Cloudy
90.9 °F
Feels Like 89 °F
N
6.9
Wind Variable Wind from SW
Gusts 7.6 mph

Today
High -- | Low -- °F
--% Chance of Precip.
Yesterday
High -- | Low -- °F
Precip. -- in
7:19 AM 8:15 PM
Full, 98% visible
Pressure 29.98 in
Visibility 10.0 miles
Clouds Scattered Clouds 30000 ft
Heat Index 89 °F
Dew Point 53 °F
Humidity 28%
Rainfall 0.00 in
Snow Depth Not available.
UV 9 out of 12
Pollen 8.30 out of 12
Air Quality Not available.
Flu Activity Not available.
METAR KLBB 301853Z COR VRB06KT 10SM SCT300 31/12 A3012 RMK AO2 SLP150 T03060117
Pressure 29.98 in
Visibility 10.0 miles
Clouds Scattered Clouds 30000 ft
Heat Index 89 °F
Dew Point 53 °F
Humidity 28%
Rainfall 0.00 in
Snow Depth Not available.
UV 9 out of 12
Pollen 8.30 out of 12
Air Quality Not available.
Flu Activity Not available.
METAR KLBB 301853Z COR VRB06KT 10SM SCT300 31/12 A3012 RMK AO2 SLP150 T03060117

10-Day Weather Forecast

×

Almanac

Astronomy

Aug. 30, 2015 Rise Set
Actual Time
Civil Twilight
Nautical Twilight
Astronomical Twilight
Moon
Length of Visible Light
Length of Day
Tomorrow will be .
, % of the Moon is Illuminated

Today's Extremes

State Highs State Lows

Community

WunderPhotos

Upload Photos

1,851,038 photos uploaded!

WunderBlogs® & News

Nearby

Air Quality

  Air Quality AQ Index Pollutant
Not available.

Snow Depth

Station Depth Elevation

Earthquake Activity

City Distance Mag. Time & Date
Minimum magnitude displayed is 2.5.

Coastal Water Temperatures

Place Temperature

Stations

Nearby Weather Stations

Station Location Temp. Windchill Dew Point Humidity Wind Precip. Elev Updated Type